Time;durP1;ratioP1;P1;durP2;ratioP2;P2;SDS_P1;SDS_P2;PMS_P1;PMS_P2;Temp;Humidity;BMP_temperature;BMP_pressure;BME280_temperature;BME280_humidity;BME280_pressure;Samples;Min_cycle;Max_cycle;Signal;HPM_P1;HPM_P2
2022/11/03 08:25:26;;;;;;;4.97;0.83;;;13.30;99.90;;;;;;4938469;22;20236;-71
2022/11/03 08:27:53;;;;;;;2.20;0.73;;;13.40;99.90;;;;;;5004983;28;20224;-70
2022/11/03 08:30:20;;;;;;;5.47;1.03;;;13.30;99.90;;;;;;5027023;28;20208;-70
2022/11/03 08:32:46;;;;;;;3.07;1.27;;;13.30;99.90;;;;;;5025641;28;20230;-70
2022/11/03 08:35:13;;;;;;;3.47;1.27;;;13.30;99.90;;;;;;5013090;28;20678;-70
2022/11/03 08:37:40;;;;;;;1.07;0.50;;;13.20;99.90;;;;;;5012975;28;20255;-71
2022/11/03 08:40:08;;;;;;;3.07;0.70;;;13.30;99.90;;;;;;5012834;28;20210;-71
2022/11/03 08:42:36;;;;;;;3.13;0.70;;;13.40;99.90;;;;;;5021797;28;20699;-72
2022/11/03 08:45:03;;;;;;;2.10;0.60;;;13.40;99.90;;;;;;5012850;28;20206;-71
2022/11/03 08:47:30;;;;;;;1.87;0.73;;;13.40;99.90;;;;;;5013047;28;20210;-72
2022/11/03 08:49:57;;;;;;;3.60;0.90;;;13.40;99.90;;;;;;5013137;28;20216;-72
2022/11/03 08:52:24;;;;;;;1.43;0.73;;;13.40;99.90;;;;;;5013324;28;20226;-72
2022/11/03 08:54:52;;;;;;;5.37;0.70;;;13.40;99.90;;;;;;5012893;28;20237;-71
2022/11/03 08:57:18;;;;;;;4.47;0.80;;;13.30;99.90;;;;;;5012618;28;20244;-70
2022/11/03 08:59:46;;;;;;;1.30;0.47;;;13.40;99.90;;;;;;5012946;28;20563;-70
2022/11/03 09:02:13;;;;;;;2.63;0.83;;;13.40;99.90;;;;;;5013301;28;20239;-70
2022/11/03 09:04:40;;;;;;;5.13;1.33;;;13.30;99.90;;;;;;5013369;28;20205;-70
2022/11/03 09:07:07;;;;;;;6.60;0.80;;;13.30;99.90;;;;;;5012976;28;20220;-70
2022/11/03 09:09:33;;;;;;;1.70;0.50;;;13.30;99.90;;;;;;5012833;28;20209;-70
2022/11/03 09:12:00;;;;;;;3.07;0.70;;;13.40;99.90;;;;;;5012898;28;20229;-70
2022/11/03 09:14:27;;;;;;;1.33;0.63;;;13.30;99.90;;;;;;5012969;28;20219;-70
2022/11/03 09:16:55;;;;;;;2.10;0.60;;;13.40;99.90;;;;;;5012930;28;20301;-69
2022/11/03 09:19:22;;;;;;;2.37;0.60;;;13.40;99.90;;;;;;5012955;28;20576;-70
2022/11/03 09:21:51;;;;;;;3.40;0.83;;;13.50;99.90;;;;;;5012995;28;20226;-70
2022/11/03 09:24:17;;;;;;;3.70;1.07;;;13.50;99.90;;;;;;5012946;28;20205;-70
2022/11/03 09:26:44;;;;;;;2.07;0.70;;;13.50;99.90;;;;;;5012868;28;20668;-70
2022/11/03 09:29:11;;;;;;;3.33;0.67;;;13.40;99.90;;;;;;5012772;28;20230;-70
2022/11/03 09:31:38;;;;;;;1.37;0.60;;;13.50;99.90;;;;;;5012373;28;20232;-70
2022/11/03 09:34:06;;;;;;;5.60;0.97;;;13.60;99.90;;;;;;5012881;28;20210;-69
2022/11/03 09:36:33;;;;;;;5.40;1.00;;;13.70;99.90;;;;;;5012908;28;20613;-70
2022/11/03 09:38:59;;;;;;;3.17;0.90;;;13.70;99.90;;;;;;5012871;28;20600;-69
2022/11/03 09:41:26;;;;;;;3.97;0.70;;;13.80;99.90;;;;;;5012701;28;20216;-70
2022/11/03 09:43:54;;;;;;;4.53;0.97;;;14.10;99.90;;;;;;5012736;28;20201;-70
2022/11/03 09:46:21;;;;;;;2.50;0.77;;;14.20;99.90;;;;;;5012752;28;20217;-70
2022/11/03 09:48:48;;;;;;;1.57;0.60;;;14.30;99.90;;;;;;5012755;28;20210;-70
2022/11/03 09:51:20;;;;;;;3.47;0.70;;;14.40;99.90;;;;;;5012424;28;20205;-70
2022/11/03 09:53:47;;;;;;;4.93;0.60;;;14.40;99.90;;;;;;5012518;28;20304;-70
2022/11/03 09:56:15;;;;;;;1.87;1.00;;;14.50;99.90;;;;;;5012383;28;20332;-68
2022/11/03 09:58:42;;;;;;;2.57;0.70;;;14.60;99.90;;;;;;5016323;28;20234;-68
2022/11/03 10:01:10;;;;;;;2.97;0.87;;;14.70;99.90;;;;;;5016336;28;20206;-69
2022/11/03 10:03:39;;;;;;;5.23;0.77;;;14.70;99.90;;;;;;5016139;28;20208;-68
2022/11/03 10:06:06;;;;;;;2.13;0.67;;;15.00;99.90;;;;;;5016031;28;20209;-69
2022/11/03 10:08:37;;;;;;;1.97;0.70;;;15.10;99.90;;;;;;5015616;28;20624;-68
2022/11/03 10:11:07;;;;;;;2.50;0.77;;;15.20;99.90;;;;;;5016003;28;20216;-68
2022/11/03 10:13:37;;;;;;;2.30;0.70;;;15.20;99.90;;;;;;5015873;28;20261;-68
2022/11/03 10:16:07;;;;;;;3.87;0.50;;;15.20;99.90;;;;;;5015833;28;20216;-69
2022/11/03 10:18:35;;;;;;;2.00;0.70;;;15.10;99.90;;;;;;5015742;28;20240;-69
2022/11/03 10:21:05;;;;;;;3.07;0.70;;;15.00;99.90;;;;;;5015902;28;20202;-68
2022/11/03 10:23:32;;;;;;;1.53;0.70;;;15.10;99.90;;;;;;5015795;28;20268;-69
2022/11/03 10:26:09;;;;;;;1.67;0.57;;;15.20;99.90;;;;;;5015661;28;20580;-68
2022/11/03 10:28:36;;;;;;;2.77;1.10;;;15.20;99.90;;;;;;5015811;28;20213;-69
2022/11/03 10:31:07;;;;;;;6.13;0.60;;;15.20;99.90;;;;;;5015660;28;20579;-68
2022/11/03 10:33:36;;;;;;;2.80;0.60;;;15.30;99.90;;;;;;5015544;28;20216;-68
2022/11/03 10:36:05;;;;;;;2.50;0.70;;;15.50;99.90;;;;;;5015282;28;20205;-68
2022/11/03 10:38:33;;;;;;;1.03;0.73;;;15.40;99.90;;;;;;5015469;28;20233;-68
2022/11/03 10:41:13;;;;;;;1.20;0.70;;;15.50;99.90;;;;;;5015477;28;20206;-68
2022/11/03 10:43:42;;;;;;;2.70;0.80;;;15.50;99.90;;;;;;5015619;28;20206;-68
2022/11/03 10:46:15;;;;;;;2.63;0.87;;;15.60;99.90;;;;;;5015250;28;20221;-69
2022/11/03 10:48:42;;;;;;;1.73;0.60;;;15.50;99.90;;;;;;5015586;28;20209;-68
2022/11/03 10:51:12;;;;;;;1.20;0.50;;;15.40;99.90;;;;;;5015222;28;20205;-68
2022/11/03 10:53:41;;;;;;;1.53;0.63;;;15.50;99.90;;;;;;5015330;28;20202;-68
2022/11/03 10:56:08;;;;;;;1.43;0.60;;;15.60;99.90;;;;;;5015229;28;20305;-68
2022/11/03 10:58:36;;;;;;;1.27;0.60;;;15.70;99.90;;;;;;5015180;28;20238;-68
2022/11/03 11:01:04;;;;;;;3.17;0.80;;;15.60;99.90;;;;;;5015084;28;20557;-68
2022/11/03 11:03:32;;;;;;;3.77;1.30;;;15.70;99.90;;;;;;5014847;28;20252;-69
2022/11/03 11:05:58;;;;;;;2.60;0.70;;;15.80;99.90;;;;;;5015185;28;20210;-68
2022/11/03 11:08:25;;;;;;;2.00;0.77;;;15.60;99.90;;;;;;5014478;28;20568;-68
2022/11/03 11:10:54;;;;;;;4.40;0.70;;;15.70;99.90;;;;;;5014530;28;20560;-68
2022/11/03 11:13:29;;;;;;;5.33;0.63;;;15.70;99.90;;;;;;5014911;28;20228;-68
2022/11/03 11:16:00;;;;;;;1.57;0.60;;;15.90;99.90;;;;;;5014888;28;20201;-68
2022/11/03 11:19:08;;;;;;;2.57;0.43;;;15.90;99.90;;;;;;5014907;28;20229;-68
2022/11/03 11:22:01;;;;;;;2.90;0.53;;;16.00;99.90;;;;;;5014591;28;20265;-68
2022/11/03 11:24:58;;;;;;;1.40;0.53;;;15.90;99.90;;;;;;5014609;28;20205;-68
2022/11/03 11:27:57;;;;;;;2.10;0.60;;;16.10;99.90;;;;;;4975354;28;20213;-71
2022/11/03 11:31:00;;;;;;;3.67;0.67;;;16.10;99.90;;;;;;4995232;28;20209;-71
2022/11/03 11:33:31;;;;;;;2.40;0.80;;;16.10;99.90;;;;;;5009537;28;20241;-70
2022/11/03 11:36:20;;;;;;;2.30;0.57;;;16.20;99.90;;;;;;5011205;28;20292;-71
2022/11/03 11:39:05;;;;;;;1.00;0.60;;;16.10;99.90;;;;;;5013052;28;20245;-72
2022/11/03 11:42:06;;;;;;;1.83;0.70;;;16.30;99.90;;;;;;5013216;28;20240;-73
2022/11/03 11:44:53;;;;;;;2.90;0.43;;;16.30;99.90;;;;;;5008228;28;20196;-73
2022/11/03 11:47:50;;;;;;;0.80;0.50;;;16.30;99.90;;;;;;5016240;28;20299;-74
2022/11/03 11:50:30;;;;;;;3.23;1.10;;;16.20;99.90;;;;;;5008290;28;20225;-71
2022/11/03 11:53:10;;;;;;;0.80;0.50;;;16.30;99.90;;;;;;5012718;28;20230;-74
2022/11/03 11:55:50;;;;;;;2.90;0.60;;;16.30;99.90;;;;;;5012382;28;20206;-74
2022/11/03 11:58:22;;;;;;;0.90;0.70;;;16.50;99.90;;;;;;5012378;28;20229;-74
2022/11/03 12:00:58;;;;;;;1.37;0.90;;;16.40;99.90;;;;;;5013037;28;20209;-79
2022/11/03 12:03:39;;;;;;;2.03;0.90;;;16.30;99.90;;;;;;5012403;28;20720;-70
2022/11/03 12:06:08;;;;;;;2.47;0.80;;;16.30;99.90;;;;;;5012901;28;20292;-70
2022/11/03 12:08:35;;;;;;;1.37;0.90;;;16.30;99.90;;;;;;5013354;28;20358;-71
2022/11/03 12:11:03;;;;;;;1.63;0.80;;;16.50;99.90;;;;;;5013729;28;20208;-70
2022/11/03 12:13:43;;;;;;;6.33;0.70;;;16.50;99.90;;;;;;5013643;28;20221;-71
2022/11/03 12:16:25;;;;;;;2.40;0.50;;;16.50;99.90;;;;;;5013689;28;20201;-70
2022/11/03 12:18:53;;;;;;;2.30;0.63;;;16.40;99.90;;;;;;5013609;28;20240;-71
2022/11/03 12:21:46;;;;;;;1.70;0.43;;;16.30;99.90;;;;;;5022997;28;20201;-70
2022/11/03 12:24:27;;;;;;;2.50;0.70;;;16.50;99.90;;;;;;5017561;28;20590;-71
2022/11/03 12:26:54;;;;;;;2.07;0.60;;;16.60;99.90;;;;;;5016056;28;20213;-70
2022/11/03 12:29:20;;;;;;;2.37;1.13;;;16.50;99.90;;;;;;5014360;28;20205;-72
2022/11/03 12:31:47;;;;;;;1.97;0.50;;;16.40;99.90;;;;;;5013798;28;20253;-71
2022/11/03 12:34:15;;;;;;;2.90;0.60;;;16.30;99.90;;;;;;5013516;28;20206;-71
2022/11/03 12:36:42;;;;;;;1.43;0.67;;;16.20;99.90;;;;;;5013484;28;20213;-71
2022/11/03 12:39:10;;;;;;;3.17;0.70;;;16.10;99.90;;;;;;5014699;28;20249;-71
2022/11/03 12:41:37;;;;;;;1.43;0.80;;;16.00;99.90;;;;;;5013437;28;20228;-70
2022/11/03 12:44:05;;;;;;;1.87;0.60;;;15.90;99.90;;;;;;5013677;28;20202;-71
2022/11/03 12:46:31;;;;;;;3.00;0.57;;;15.80;99.90;;;;;;5013159;28;20208;-71
2022/11/03 12:48:58;;;;;;;0.80;0.50;;;15.50;99.90;;;;;;5013340;28;20205;-70
2022/11/03 12:51:25;;;;;;;2.47;0.63;;;15.10;99.90;;;;;;5013474;28;20205;-72
2022/11/03 12:53:52;;;;;;;2.37;0.57;;;14.90;99.90;;;;;;5015084;28;20288;-74
2022/11/03 12:56:20;;;;;;;3.40;0.73;;;14.70;99.90;;;;;;5013946;28;20323;-71
2022/11/03 12:58:47;;;;;;;1.43;0.97;;;14.70;99.90;;;;;;5013959;28;20233;-73
2022/11/03 13:01:14;;;;;;;1.00;0.80;;;14.40;99.90;;;;;;5013740;28;20296;-74
2022/11/03 13:03:42;;;;;;;6.30;0.70;;;14.30;99.90;;;;;;5013392;28;20208;-72
2022/11/03 13:06:10;;;;;;;1.03;0.90;;;14.20;99.90;;;;;;5013260;28;20289;-73
2022/11/03 13:08:37;;;;;;;4.37;1.00;;;14.20;99.90;;;;;;5013075;28;20205;-73
2022/11/03 13:12:29;;;;;;;2.30;0.73;;;14.10;99.90;;;;;;5013150;28;20213;-72
2022/11/03 13:13:53;;;;;;;2.03;0.80;;;14.00;99.90;;;;;;5013272;28;20210;-72
2022/11/03 13:16:20;;;;;;;1.93;1.03;;;14.00;99.90;;;;;;5012974;28;20198;-73
2022/11/03 13:18:47;;;;;;;9.57;1.43;;;13.90;99.90;;;;;;5012571;28;20690;-72
2022/11/03 13:21:13;;;;;;;1.17;0.80;;;13.90;99.90;;;;;;5021890;28;20200;-73
2022/11/03 13:23:41;;;;;;;2.23;1.00;;;13.80;99.90;;;;;;5032625;28;20211;-72
2022/11/03 13:26:08;;;;;;;1.23;0.60;;;13.80;99.90;;;;;;5026037;28;20581;-72
2022/11/03 13:28:35;;;;;;;1.50;0.87;;;13.70;99.90;;;;;;5013119;28;20216;-72
2022/11/03 13:31:03;;;;;;;3.03;0.60;;;13.70;99.90;;;;;;5014278;28;20202;-72
2022/11/03 13:33:30;;;;;;;3.30;0.80;;;13.70;99.90;;;;;;5016714;28;20221;-72
2022/11/03 13:35:57;;;;;;;3.47;0.70;;;13.70;99.90;;;;;;5016795;28;20201;-71
2022/11/03 13:38:23;;;;;;;2.03;0.53;;;13.60;99.90;;;;;;5016636;28;20232;-76
2022/11/03 13:40:50;;;;;;;0.90;0.57;;;13.50;99.90;;;;;;5016624;28;20297;-72
2022/11/03 13:43:17;;;;;;;1.40;0.70;;;13.50;99.90;;;;;;5016234;28;20244;-74
2022/11/03 13:45:44;;;;;;;2.80;0.93;;;13.50;99.90;;;;;;5013265;28;20301;-74
2022/11/03 13:48:12;;;;;;;3.63;1.10;;;13.50;99.90;;;;;;5015028;28;20304;-74
2022/11/03 13:50:39;;;;;;;3.13;0.70;;;13.60;99.90;;;;;;5015089;28;20212;-73
2022/11/03 13:53:06;;;;;;;2.10;0.93;;;13.60;99.90;;;;;;5014604;28;20272;-73
2022/11/03 13:55:33;;;;;;;2.43;0.87;;;13.70;99.90;;;;;;5014634;28;20208;-72
2022/11/03 13:58:00;;;;;;;3.80;0.67;;;13.70;99.90;;;;;;5014760;28;20210;-72
2022/11/03 14:00:27;;;;;;;3.97;0.80;;;13.70;99.90;;;;;;5014813;28;20239;-73
2022/11/03 14:02:53;;;;;;;3.30;0.70;;;13.70;99.90;;;;;;5014899;28;20703;-75
2022/11/03 14:05:21;;;;;;;1.23;0.53;;;13.80;99.90;;;;;;5014450;28;20216;-72
2022/11/03 14:07:48;;;;;;;1.97;0.77;;;13.70;99.90;;;;;;5014841;28;20216;-74
2022/11/03 14:10:15;;;;;;;1.93;0.90;;;13.70;99.90;;;;;;5014796;28;20210;-74
2022/11/03 14:12:41;;;;;;;1.90;1.10;;;13.70;99.90;;;;;;5014622;28;20239;-74
2022/11/03 14:15:10;;;;;;;4.40;0.90;;;13.70;99.90;;;;;;5014355;28;20213;-72
